Time;durP1;ratioP1;P1;durP2;ratioP2;P2;SDS_P1;SDS_P2;PMS_P1;PMS_P2;Temp;Humidity;BMP_temperature;BMP_pressure;BME280_temperature;BME280_humidity;BME280_pressure;Samples;Min_cycle;Max_cycle;Signal;HPM_P1;HPM_P2
2022/01/25 00:26:31;;;;;;;13.05;4.82;;;;;;;;;;4959367;28;20050;-34
2022/01/25 00:29:12;;;;;;;9.70;3.75;;;;;;;;;;4958347;28;20043;-39
2022/01/25 00:31:40;;;;;;;13.40;3.70;;;;;;;;;;4958168;28;20049;-35
2022/01/25 00:34:08;;;;;;;14.18;4.68;;;;;;;;;;4957705;28;20142;-34
2022/01/25 00:36:36;;;;;;;8.60;3.58;;;;;;;;;;4959324;28;20030;-31
2022/01/25 00:39:04;;;;;;;11.10;4.22;;;;;;;;;;4952736;28;20079;-33
2022/01/25 00:41:31;;;;;;;9.73;4.25;;;;;;;;;;4954171;28;20942;-31
2022/01/25 00:44:00;;;;;;;11.35;4.07;;;;;;;;;;4955492;28;20031;-33
2022/01/25 00:46:27;;;;;;;12.73;4.28;;;;;;;;;;4953806;28;20038;-36
2022/01/25 00:48:59;;;;;;;12.60;4.35;;;;;;;;;;4953726;28;20035;-34
2022/01/25 00:54:26;;;;;;;15.25;4.32;;;;;;;;;;4955913;28;20047;-33
2022/01/25 00:56:53;;;;;;;13.65;4.30;;;;;;;;;;4954156;28;20375;-35
2022/01/25 00:59:31;;;;;;;12.52;4.47;;;;;;;;;;4952562;28;20045;-34
2022/01/25 01:01:59;;;;;;;11.88;4.55;;;;;;;;;;4959070;28;20031;-33
2022/01/25 01:04:27;;;;;;;9.57;4.28;;;;;;;;;;4963471;28;20027;-31
2022/01/25 01:06:55;;;;;;;9.82;4.30;;;;;;;;;;4968750;28;20027;-34
2022/01/25 01:09:23;;;;;;;10.85;4.38;;;;;;;;;;4967391;28;20101;-33
2022/01/25 01:12:01;;;;;;;10.25;4.35;;;;;;;;;;4966612;28;20042;-30
2022/01/25 01:14:53;;;;;;;13.73;4.20;;;;;;;;;;4966161;28;20026;-32
2022/01/25 01:31:36;;;;;;;10.77;4.15;;;;;;;;;;4954054;28;20057;-31
2022/01/25 01:42:12;;;;;;;8.30;4.32;;;;;;;;;;4956080;28;20081;-32
2022/01/25 01:44:54;;;;;;;11.85;4.38;;;;;;;;;;4955218;28;20101;-32
2022/01/25 01:47:35;;;;;;;17.55;4.95;;;;;;;;;;4980311;28;20524;-32
2022/01/25 01:50:08;;;;;;;13.73;6.03;;;;;;;;;;4962935;28;20130;-32
2022/01/25 01:52:36;;;;;;;14.98;5.88;;;;;;;;;;4967224;28;20027;-36
2022/01/25 01:55:03;;;;;;;17.48;5.80;;;;;;;;;;4958509;28;20027;-38
2022/01/25 01:57:31;;;;;;;23.80;6.80;;;;;;;;;;4980966;28;20117;-37
2022/01/25 01:59:58;;;;;;;23.33;8.07;;;;;;;;;;4961948;28;20081;-32
2022/01/25 02:02:25;;;;;;;20.15;7.82;;;;;;;;;;4961898;28;20035;-36
2022/01/25 02:04:52;;;;;;;28.25;11.30;;;;;;;;;;4961568;28;20485;-33
2022/01/25 02:07:19;;;;;;;25.50;12.38;;;;;;;;;;4966670;28;20030;-37
2022/01/25 02:09:46;;;;;;;21.17;9.20;;;;;;;;;;4960982;28;20039;-32
2022/01/25 02:12:13;;;;;;;27.65;11.43;;;;;;;;;;4962128;28;20130;-37
2022/01/25 02:14:41;;;;;;;28.05;11.23;;;;;;;;;;4970678;28;20449;-34
2022/01/25 02:17:24;;;;;;;21.48;9.75;;;;;;;;;;4967137;28;20046;-34
2022/01/25 02:22:51;;;;;;;27.52;9.77;;;;;;;;;;4967545;28;20050;-33
2022/01/25 02:25:18;;;;;;;19.83;8.38;;;;;;;;;;4957527;28;20026;-33
2022/01/25 02:27:45;;;;;;;23.20;8.10;;;;;;;;;;4964255;28;20802;-38
2022/01/25 02:30:12;;;;;;;14.85;7.05;;;;;;;;;;4969080;28;20047;-33
2022/01/25 02:32:39;;;;;;;20.02;8.15;;;;;;;;;;4972081;28;20465;-31
2022/01/25 02:35:06;;;;;;;21.98;7.82;;;;;;;;;;4962888;28;20381;-33
2022/01/25 02:37:34;;;;;;;19.50;8.70;;;;;;;;;;4961523;28;20037;-36
2022/01/25 02:40:02;;;;;;;21.10;9.25;;;;;;;;;;4969768;28;20058;-36
2022/01/25 02:42:29;;;;;;;22.25;10.13;;;;;;;;;;4963066;28;20031;-31
2022/01/25 02:44:56;;;;;;;20.67;9.55;;;;;;;;;;4962526;28;20450;-37
2022/01/25 02:50:08;;;;;;;19.13;9.18;;;;;;;;;;4967998;28;20057;-32
2022/01/25 02:52:39;;;;;;;20.90;7.82;;;;;;;;;;4968431;28;20030;-39
2022/01/25 02:55:10;;;;;;;19.95;9.30;;;;;;;;;;4966477;28;20042;-39
2022/01/25 03:00:38;;;;;;;21.92;9.40;;;;;;;;;;4971356;28;20089;-36
2022/01/25 03:03:06;;;;;;;24.27;8.23;;;;;;;;;;4967791;28;20038;-32
2022/01/25 03:05:33;;;;;;;20.27;7.72;;;;;;;;;;4965121;28;20037;-32
2022/01/25 03:08:01;;;;;;;16.42;6.20;;;;;;;;;;4970603;28;20436;-36
2022/01/25 03:10:38;;;;;;;9.10;5.80;;;;;;;;;;4960009;28;20069;-34
2022/01/25 03:13:09;;;;;;;15.07;8.05;;;;;;;;;;4956692;28;20528;-32
2022/01/25 03:21:04;;;;;;;18.55;8.07;;;;;;;;;;4967541;28;20046;-32
2022/01/25 03:23:33;;;;;;;24.92;8.60;;;;;;;;;;4965965;28;20042;-32
2022/01/25 03:26:00;;;;;;;18.60;7.00;;;;;;;;;;4969119;28;20035;-36
2022/01/25 03:28:27;;;;;;;18.52;6.32;;;;;;;;;;4979334;28;20032;-33
2022/01/25 03:30:54;;;;;;;14.23;6.47;;;;;;;;;;4970409;28;20035;-40
2022/01/25 03:33:22;;;;;;;13.98;6.70;;;;;;;;;;4964117;28;20091;-34
2022/01/25 03:35:49;;;;;;;20.45;6.82;;;;;;;;;;4963667;28;20130;-35
2022/01/25 03:38:16;;;;;;;16.45;6.30;;;;;;;;;;4962085;28;20031;-34
2022/01/25 03:40:45;;;;;;;13.13;6.38;;;;;;;;;;4961785;28;20086;-34
2022/01/25 03:43:14;;;;;;;10.35;6.43;;;;;;;;;;4967750;28;20122;-33
2022/01/25 03:45:45;;;;;;;12.13;6.10;;;;;;;;;;4962246;28;20551;-31
2022/01/25 03:50:43;;;;;;;19.27;6.88;;;;;;;;;;4972920;28;20401;-31
2022/01/25 03:53:18;;;;;;;17.15;7.20;;;;;;;;;;4972602;28;20530;-31
2022/01/25 03:55:45;;;;;;;15.95;6.00;;;;;;;;;;4970735;28;20038;-33
2022/01/25 03:58:13;;;;;;;13.85;6.22;;;;;;;;;;4973660;28;20062;-32
2022/01/25 04:00:40;;;;;;;12.48;5.38;;;;;;;;;;4972669;28;20031;-31
2022/01/25 04:08:14;;;;;;;15.52;5.97;;;;;;;;;;4971244;28;20043;-32
2022/01/25 04:10:41;;;;;;;10.85;5.38;;;;;;;;;;4971485;28;20118;-32
2022/01/25 04:13:08;;;;;;;16.25;6.03;;;;;;;;;;4971924;28;20158;-30
2022/01/25 04:15:38;;;;;;;8.90;5.10;;;;;;;;;;4971922;28;20050;-34
2022/01/25 04:21:27;;;;;;;10.85;4.97;;;;;;;;;;4972042;28;20060;-30
2022/01/25 04:26:23;;;;;;;10.80;5.35;;;;;;;;;;4971994;28;20101;-30
2022/01/25 04:28:50;;;;;;;13.07;4.32;;;;;;;;;;4972655;28;20411;-32
2022/01/25 04:31:19;;;;;;;8.73;4.50;;;;;;;;;;4972395;28;20035;-34
2022/01/25 04:34:07;;;;;;;12.98;4.13;;;;;;;;;;4971769;28;20158;-30
2022/01/25 04:50:08;;;;;;;7.97;3.05;;;;;;;;;;4972198;28;20085;-30
2022/01/25 04:55:40;;;;;;;6.07;3.30;;;;;;;;;;4976733;28;20042;-32
2022/01/25 04:58:14;;;;;;;7.03;3.88;;;;;;;;;;4972003;28;20426;-34
2022/01/25 05:00:41;;;;;;;6.78;2.90;;;;;;;;;;4973069;28;20092;-31
2022/01/25 05:03:12;;;;;;;5.65;2.83;;;;;;;;;;4972661;28;20038;-34
2022/01/25 05:06:09;;;;;;;4.57;3.20;;;;;;;;;;4972537;28;20041;-32
2022/01/25 05:08:41;;;;;;;5.50;2.97;;;;;;;;;;4972846;28;20038;-31
2022/01/25 05:11:27;;;;;;;4.65;2.60;;;;;;;;;;4972095;28;20034;-30
2022/01/25 05:24:23;;;;;;;5.15;2.40;;;;;;;;;;4972633;28;20093;-32
2022/01/25 05:26:50;;;;;;;9.98;2.72;;;;;;;;;;4972701;28;20066;-30
2022/01/25 05:29:17;;;;;;;6.60;2.63;;;;;;;;;;4971905;28;20511;-35
2022/01/25 05:31:44;;;;;;;5.00;2.83;;;;;;;;;;4972500;28;20485;-32
2022/01/25 05:34:11;;;;;;;6.88;2.72;;;;;;;;;;4972187;28;20023;-31
2022/01/25 05:36:38;;;;;;;4.55;2.45;;;;;;;;;;4972252;28;20613;-34
2022/01/25 05:39:12;;;;;;;3.90;2.60;;;;;;;;;;4972465;28;20086;-36
2022/01/25 05:41:40;;;;;;;4.03;2.38;;;;;;;;;;4971981;28;20035;-32
2022/01/25 05:49:20;;;;;;;3.42;1.98;;;;;;;;;;4974876;28;20089;-33
2022/01/25 05:51:47;;;;;;;3.53;2.05;;;;;;;;;;4976101;28;20019;-33
2022/01/25 05:54:14;;;;;;;6.25;2.45;;;;;;;;;;4975955;28;20027;-36
2022/01/25 05:56:41;;;;;;;4.63;2.25;;;;;;;;;;4975999;28;20030;-34
2022/01/25 05:59:08;;;;;;;4.70;2.00;;;;;;;;;;4975924;28;20028;-32
2022/01/25 06:01:36;;;;;;;3.80;1.83;;;;;;;;;;4973613;28;20445;-29
2022/01/25 06:04:03;;;;;;;4.80;1.90;;;;;;;;;;4976185;28;20684;-30
2022/01/25 06:06:30;;;;;;;3.13;1.80;;;;;;;;;;4975250;28;20544;-32
2022/01/25 06:08:59;;;;;;;3.85;1.95;;;;;;;;;;4976092;28;20022;-30
2022/01/25 06:11:26;;;;;;;3.10;1.85;;;;;;;;;;4975605;28;20043;-30
2022/01/25 06:13:53;;;;;;;7.95;1.75;;;;;;;;;;4975722;28;20037;-29
2022/01/25 06:16:20;;;;;;;5.75;1.83;;;;;;;;;;4975969;28;20119;-31
2022/01/25 06:18:47;;;;;;;5.97;1.80;;;;;;;;;;4975016;28;20481;-32
2022/01/25 06:21:14;;;;;;;2.70;1.67;;;;;;;;;;4975834;28;20396;-33
2022/01/25 06:23:41;;;;;;;5.05;1.50;;;;;;;;;;4975384;28;20130;-30
2022/01/25 06:26:08;;;;;;;2.63;1.90;;;;;;;;;;4975373;28;20397;-30
2022/01/25 06:28:35;;;;;;;2.60;1.55;;;;;;;;;;4975372;28;20023;-33
2022/01/25 06:31:02;;;;;;;2.25;1.50;;;;;;;;;;5132152;23;20393;-32
2022/01/25 06:33:29;;;;;;;3.75;1.60;;;;;;;;;;5013196;28;20053;-33
2022/01/25 06:35:56;;;;;;;2.42;1.50;;;;;;;;;;5013799;28;20190;-34
2022/01/25 06:38:23;;;;;;;2.95;1.38;;;;;;;;;;5013654;28;20024;-33
2022/01/25 06:40:50;;;;;;;5.07;1.35;;;;;;;;;;5013144;28;20034;-33
2022/01/25 06:43:17;;;;;;;3.50;1.40;;;;;;;;;;5013921;28;20514;-33
2022/01/25 06:45:50;;;;;;;3.22;1.52;;;;;;;;;;5014122;28;20022;-33
2022/01/25 06:48:17;;;;;;;3.35;1.40;;;;;;;;;;5013740;28;20034;-34
2022/01/25 06:50:44;;;;;;;2.50;1.50;;;;;;;;;;5013822;28;20034;-34
2022/01/25 06:53:11;;;;;;;2.35;1.20;;;;;;;;;;5013826;28;20071;-33
2022/01/25 06:55:38;;;;;;;1.90;1.25;;;;;;;;;;5014164;28;20061;-34
2022/01/25 06:58:05;;;;;;;2.60;1.40;;;;;;;;;;5013756;28;20034;-33
2022/01/25 07:00:32;;;;;;;3.15;1.50;;;;;;;;;;5013012;28;20108;-33
2022/01/25 07:02:59;;;;;;;1.88;0.98;;;;;;;;;;5013361;28;20030;-34
2022/01/25 07:05:26;;;;;;;1.52;1.20;;;;;;;;;;5013737;28;20022;-33
2022/01/25 07:07:53;;;;;;;3.17;1.20;;;;;;;;;;5013307;28;20030;-33
2022/01/25 07:10:21;;;;;;;2.00;1.30;;;;;;;;;;5013748;28;20084;-33
2022/01/25 07:12:48;;;;;;;2.20;1.20;;;;;;;;;;5013406;28;20030;-33
2022/01/25 07:15:15;;;;;;;1.67;1.23;;;;;;;;;;5013550;28;20028;-33
2022/01/25 07:17:42;;;;;;;2.30;1.23;;;;;;;;;;5013399;28;20530;-34
2022/01/25 07:20:09;;;;;;;1.45;1.00;;;;;;;;;;5013505;28;20046;-33
2022/01/25 07:22:37;;;;;;;1.80;1.10;;;;;;;;;;5013109;28;20026;-34
2022/01/25 07:25:06;;;;;;;4.10;1.10;;;;;;;;;;5013145;28;20018;-33
2022/01/25 07:27:33;;;;;;;2.03;1.15;;;;;;;;;;4995577;28;20404;-34
2022/01/25 07:30:00;;;;;;;3.83;1.00;;;;;;;;;;5012892;28;20049;-33
2022/01/25 07:32:27;;;;;;;1.58;1.13;;;;;;;;;;5012745;28;20073;-33
2022/01/25 07:34:54;;;;;;;2.38;1.20;;;;;;;;;;5013260;28;20097;-33
2022/01/25 07:37:22;;;;;;;2.00;1.10;;;;;;;;;;5013091;28;20033;-33
2022/01/25 07:39:49;;;;;;;2.30;1.20;;;;;;;;;;5013004;28;20030;-33
2022/01/25 07:42:17;;;;;;;1.90;1.20;;;;;;;;;;5012795;28;20022;-33
2022/01/25 07:44:45;;;;;;;2.10;1.13;;;;;;;;;;5012632;28;20383;-34
2022/01/25 07:47:12;;;;;;;2.03;1.10;;;;;;;;;;5012714;28;20093;-33
2022/01/25 07:49:39;;;;;;;2.17;1.58;;;;;;;;;;5012713;28;20034;-33
2022/01/25 07:52:07;;;;;;;1.33;1.00;;;;;;;;;;5012690;28;20018;-33
2022/01/25 07:54:34;;;;;;;1.20;1.00;;;;;;;;;;5012639;28;20033;-34
2022/01/25 07:57:01;;;;;;;2.38;1.13;;;;;;;;;;5012737;28;20018;-34
2022/01/25 07:59:28;;;;;;;1.17;0.90;;;;;;;;;;5012624;28;20036;-34
2022/01/25 08:01:55;;;;;;;4.13;1.10;;;;;;;;;;5012223;28;20017;-34
2022/01/25 08:04:22;;;;;;;0.82;0.80;;;;;;;;;;5012388;28;20042;-34
2022/01/25 08:06:49;;;;;;;2.13;1.10;;;;;;;;;;5012628;28;20036;-34
2022/01/25 08:09:16;;;;;;;1.42;1.20;;;;;;;;;;5012335;28;20017;-34
2022/01/25 08:11:43;;;;;;;1.75;0.98;;;;;;;;;;5012143;28;20523;-33
2022/01/25 08:14:16;;;;;;;1.20;1.10;;;;;;;;;;5012287;28;20021;-33
2022/01/25 08:16:44;;;;;;;1.65;1.02;;;;;;;;;;5012138;28;20058;-34
2022/01/25 08:19:12;;;;;;;1.20;0.95;;;;;;;;;;5012161;28;20032;-34
2022/01/25 08:21:43;;;;;;;1.10;0.95;;;;;;;;;;5012267;28;20022;-33
2022/01/25 08:24:11;;;;;;;3.72;1.20;;;;;;;;;;5012004;28;20026;-34
2022/01/25 08:26:38;;;;;;;2.88;1.00;;;;;;;;;;5012180;28;20034;-34
2022/01/25 08:29:06;;;;;;;1.27;1.08;;;;;;;;;;5012086;28;20028;-33
2022/01/25 08:31:33;;;;;;;1.75;0.90;;;;;;;;;;5011693;28;20125;-33
2022/01/25 08:34:00;;;;;;;1.20;1.05;;;;;;;;;;5011926;28;20387;-34
2022/01/25 08:36:27;;;;;;;2.22;0.90;;;;;;;;;;5012038;28;20026;-34
2022/01/25 08:38:54;;;;;;;1.73;1.00;;;;;;;;;;5011881;28;20042;-34
2022/01/25 08:41:22;;;;;;;3.35;1.10;;;;;;;;;;5011834;28;20117;-33
2022/01/25 08:43:49;;;;;;;2.55;1.00;;;;;;;;;;5011866;28;20426;-33
2022/01/25 08:46:16;;;;;;;3.45;1.00;;;;;;;;;;5011585;28;20444;-34
2022/01/25 08:48:45;;;;;;;2.55;1.05;;;;;;;;;;5011843;28;20025;-33
2022/01/25 08:51:13;;;;;;;1.77;1.10;;;;;;;;;;5011316;28;20034;-34
2022/01/25 08:53:40;;;;;;;1.17;1.00;;;;;;;;;;5011788;28;20038;-34
2022/01/25 08:56:07;;;;;;;4.80;1.00;;;;;;;;;;5011512;28;20029;-34
2022/01/25 08:58:34;;;;;;;0.98;0.90;;;;;;;;;;5011632;28;20022;-34
2022/01/25 09:01:01;;;;;;;5.88;1.30;;;;;;;;;;5011283;28;20073;-34
2022/01/25 09:03:28;;;;;;;3.25;1.25;;;;;;;;;;5011576;28;20018;-34
2022/01/25 09:05:55;;;;;;;2.65;1.25;;;;;;;;;;5011441;28;20025;-34
2022/01/25 09:08:25;;;;;;;4.75;1.40;;;;;;;;;;5011665;28;20383;-33
2022/01/25 09:10:57;;;;;;;5.22;1.30;;;;;;;;;;5011120;28;20037;-34
2022/01/25 09:13:25;;;;;;;3.90;1.05;;;;;;;;;;5011432;28;20369;-33
2022/01/25 09:15:52;;;;;;;8.80;1.70;;;;;;;;;;5011370;28;20033;-33
2022/01/25 09:18:19;;;;;;;11.75;1.85;;;;;;;;;;5011372;28;20037;-34
2022/01/25 09:20:46;;;;;;;15.05;2.15;;;;;;;;;;5011379;28;20030;-34
2022/01/25 09:23:16;;;;;;;5.60;1.83;;;;;;;;;;5010910;28;20068;-34
2022/01/25 09:25:43;;;;;;;5.20;1.50;;;;;;;;;;5011215;28;20065;-34
2022/01/25 09:28:10;;;;;;;10.07;1.88;;;;;;;;;;5011264;28;20038;-33
2022/01/25 09:30:37;;;;;;;10.05;1.40;;;;;;;;;;4993505;28;20052;-34
2022/01/25 09:33:05;;;;;;;3.78;1.35;;;;;;;;;;5010965;28;20049;-34
2022/01/25 09:35:32;;;;;;;7.25;1.20;;;;;;;;;;5011086;28;20026;-34
2022/01/25 09:37:59;;;;;;;8.77;1.40;;;;;;;;;;5011133;28;20030;-33
2022/01/25 09:40:26;;;;;;;7.88;1.63;;;;;;;;;;5011262;28;20037;-34
2022/01/25 09:42:56;;;;;;;6.28;1.30;;;;;;;;;;5010992;28;20106;-34
2022/01/25 09:45:23;;;;;;;13.23;2.05;;;;;;;;;;5010865;28;20030;-34
2022/01/25 09:47:51;;;;;;;9.00;1.73;;;;;;;;;;5011028;28;20445;-34
2022/01/25 09:50:18;;;;;;;8.15;1.10;;;;;;;;;;5010920;28;20057;-34
2022/01/25 09:52:46;;;;;;;5.38;1.33;;;;;;;;;;5010972;28;20515;-34
2022/01/25 09:55:14;;;;;;;5.25;1.00;;;;;;;;;;5011074;28;20061;-34
2022/01/25 09:57:42;;;;;;;5.72;1.30;;;;;;;;;;5011042;28;20558;-34
2022/01/25 10:00:10;;;;;;;4.85;1.38;;;;;;;;;;4992964;28;20092;-34
2022/01/25 10:02:51;;;;;;;2.65;1.42;;;;;;;;;;5010689;28;20057;-33
2022/01/25 10:05:38;;;;;;;15.25;2.05;;;;;;;;;;5010710;28;20492;-34
2022/01/25 10:08:13;;;;;;;10.70;1.92;;;;;;;;;;5010861;28;20026;-33
2022/01/25 10:10:48;;;;;;;10.07;1.85;;;;;;;;;;5010736;28;20030;-33
2022/01/25 10:13:25;;;;;;;9.57;1.27;;;;;;;;;;5010786;28;20018;-34
2022/01/25 10:15:58;;;;;;;3.67;1.40;;;;;;;;;;5010871;28;20024;-34
2022/01/25 10:18:36;;;;;;;8.57;1.38;;;;;;;;;;5010688;28;20109;-33
2022/01/25 10:21:03;;;;;;;4.85;1.35;;;;;;;;;;5010992;28;20029;-34
2022/01/25 10:23:31;;;;;;;5.22;1.40;;;;;;;;;;5010748;28;20383;-33
2022/01/25 10:26:01;;;;;;;3.95;1.50;;;;;;;;;;5010562;28;20033;-34
2022/01/25 10:28:29;;;;;;;7.47;1.60;;;;;;;;;;5010568;28;20034;-33
2022/01/25 10:31:00;;;;;;;3.28;1.20;;;;;;;;;;5010336;28;20071;-34
2022/01/25 10:33:38;;;;;;;4.78;1.40;;;;;;;;;;5010784;28;20101;-33
2022/01/25 10:36:16;;;;;;;5.63;1.63;;;;;;;;;;5012693;28;20109;-34
2022/01/25 10:38:45;;;;;;;5.97;1.92;;;;;;;;;;5014366;28;20022;-34
2022/01/25 10:41:15;;;;;;;4.90;1.35;;;;;;;;;;5014127;28;20030;-34
2022/01/25 10:43:43;;;;;;;8.52;1.30;;;;;;;;;;5013856;28;20026;-34
2022/01/25 10:46:14;;;;;;;8.35;1.50;;;;;;;;;;5013801;28;20507;-33
2022/01/25 10:48:44;;;;;;;7.70;1.75;;;;;;;;;;5013730;28;20399;-33
2022/01/25 10:51:12;;;;;;;5.50;1.70;;;;;;;;;;5013903;28;20522;-34
2022/01/25 10:53:39;;;;;;;8.15;1.60;;;;;;;;;;5013701;28;20055;-34
2022/01/25 10:56:07;;;;;;;6.40;1.60;;;;;;;;;;5014151;28;20029;-34
2022/01/25 10:58:42;;;;;;;9.32;1.67;;;;;;;;;;5013595;28;20488;-34
2022/01/25 11:01:10;;;;;;;8.90;1.60;;;;;;;;;;5013734;28;20491;-33
2022/01/25 11:03:37;;;;;;;6.43;1.50;;;;;;;;;;5013588;28;20092;-33
2022/01/25 11:06:14;;;;;;;4.55;1.42;;;;;;;;;;5013707;28;20033;-34
2022/01/25 11:08:42;;;;;;;6.25;1.70;;;;;;;;;;5014273;28;20551;-33
2022/01/25 11:11:10;;;;;;;8.05;1.75;;;;;;;;;;5015486;28;20070;-33
2022/01/25 11:13:39;;;;;;;9.57;1.70;;;;;;;;;;5013552;28;20030;-34
2022/01/25 11:16:08;;;;;;;6.97;1.55;;;;;;;;;;5012882;28;20037;-34
2022/01/25 11:18:36;;;;;;;6.53;1.42;;;;;;;;;;4995006;28;20069;-33
2022/01/25 11:21:05;;;;;;;4.30;1.23;;;;;;;;;;5012869;28;20029;-34
2022/01/25 11:23:33;;;;;;;5.82;1.50;;;;;;;;;;5012593;28;20018;-34
2022/01/25 11:26:06;;;;;;;6.82;1.60;;;;;;;;;;5012888;28;20484;-33
2022/01/25 11:28:32;;;;;;;;;;;;;;;;;;5013338;28;20056;-34
2022/01/25 11:31:02;;;;;;;4.50;1.10;;;;;;;;;;5012716;28;20124;-33
2022/01/25 11:33:30;;;;;;;3.60;1.02;;;;;;;;;;5012553;28;20098;-34
2022/01/25 11:35:57;;;;;;;4.43;1.42;;;;;;;;;;5012710;28;20022;-33
2022/01/25 11:38:34;;;;;;;4.93;1.33;;;;;;;;;;5012552;28;20071;-34
2022/01/25 11:41:01;;;;;;;4.20;1.20;;;;;;;;;;5012641;28;20033;-34
2022/01/25 11:43:28;;;;;;;4.70;1.05;;;;;;;;;;4994769;28;20832;-33
2022/01/25 11:46:03;;;;;;;3.47;1.00;;;;;;;;;;5011963;28;20030;-34
2022/01/25 11:48:41;;;;;;;4.65;1.27;;;;;;;;;;5012460;28;20511;-34
2022/01/25 11:51:28;;;;;;;6.78;1.20;;;;;;;;;;5012447;28;20499;-34
2022/01/25 11:53:55;;;;;;;4.20;1.20;;;;;;;;;;5012308;28;20037;-34
2022/01/25 11:56:22;;;;;;;4.13;1.00;;;;;;;;;;5012675;28;20053;-33
2022/01/25 11:58:59;;;;;;;6.97;1.30;;;;;;;;;;5012298;28;20488;-33
2022/01/25 12:01:28;;;;;;;4.90;1.30;;;;;;;;;;5012513;28;20492;-34
2022/01/25 12:03:59;;;;;;;4.22;0.95;;;;;;;;;;5011936;28;20476;-33
2022/01/25 12:06:32;;;;;;;5.35;1.48;;;;;;;;;;5011999;28;20034;-33
2022/01/25 12:11:51;;;;;;;4.05;1.17;;;;;;;;;;5011894;28;20495;-33
2022/01/25 12:14:23;;;;;;;5.35;1.23;;;;;;;;;;5011640;28;20031;-34
2022/01/25 12:16:49;;;;;;;;;;;;;;;;;;5012383;28;20056;-33
2022/01/25 12:19:17;;;;;;;4.47;1.00;;;;;;;;;;4994410;28;20349;-33
2022/01/25 12:21:54;;;;;;;3.00;1.40;;;;;;;;;;5012204;28;20476;-34
2022/01/25 12:24:50;;;;;;;5.05;1.17;;;;;;;;;;5011562;28;20413;-33
2022/01/25 12:27:36;;;;;;;3.65;1.15;;;;;;;;;;5011164;28;20038;-34
2022/01/25 12:30:12;;;;;;;3.97;1.15;;;;;;;;;;5012225;28;20120;-33
2022/01/25 12:33:02;;;;;;;3.03;1.33;;;;;;;;;;5011216;28;20412;-33
2022/01/25 12:35:32;;;;;;;4.20;1.10;;;;;;;;;;5011699;28;20059;-33
2022/01/25 12:38:01;;;;;;;2.25;1.00;;;;;;;;;;5012224;28;20104;-33
2022/01/25 12:40:29;;;;;;;3.17;1.20;;;;;;;;;;5011208;28;20030;-33
2022/01/25 12:42:58;;;;;;;3.53;1.10;;;;;;;;;;5011565;28;20099;-34
2022/01/25 12:45:30;;;;;;;5.18;1.10;;;;;;;;;;5012344;28;20109;-33
2022/01/25 12:48:08;;;;;;;1.30;0.90;;;;;;;;;;5012453;28;20105;-33
2022/01/25 12:50:42;;;;;;;3.15;1.15;;;;;;;;;;5011004;28;20527;-34
2022/01/25 12:53:10;;;;;;;3.47;1.52;;;;;;;;;;5022782;28;20108;-34
2022/01/25 12:55:39;;;;;;;3.58;1.20;;;;;;;;;;5028685;28;20088;-34
2022/01/25 12:58:07;;;;;;;3.00;1.25;;;;;;;;;;5022858;28;20459;-34
2022/01/25 13:00:36;;;;;;;3.22;1.30;;;;;;;;;;5020571;28;20018;-34
2022/01/25 13:03:15;;;;;;;3.13;1.20;;;;;;;;;;5016564;28;20061;-34
2022/01/25 13:05:53;;;;;;;2.95;1.27;;;;;;;;;;5018811;28;20029;-34
2022/01/25 13:08:22;;;;;;;2.95;1.40;;;;;;;;;;5012436;28;20022;-35
2022/01/25 13:10:51;;;;;;;3.90;1.05;;;;;;;;;;5014957;28;20132;-35
2022/01/25 13:13:45;;;;;;;6.50;1.38;;;;;;;;;;5020740;28;20128;-49
2022/01/25 13:16:09;;;;;;;5.95;1.42;;;;;;;;;;5025519;28;20141;-50
2022/01/25 13:18:40;;;;;;;15.05;1.85;;;;;;;;;;5029344;28;20033;-48
2022/01/25 13:21:09;;;;;;;10.32;1.90;;;;;;;;;;5028060;28;20029;-48
2022/01/25 13:23:50;;;;;;;8.98;2.05;;;;;;;;;;5024215;28;20072;-47
2022/01/25 13:26:20;;;;;;;17.48;2.83;;;;;;;;;;5029210;28;20096;-48
2022/01/25 13:31:17;;;;;;;21.33;2.30;;;;;;;;;;5020668;28;20054;-48
2022/01/25 13:33:44;;;;;;;23.70;2.92;;;;;;;;;;5014602;28;20065;-50
2022/01/25 13:36:15;;;;;;;16.25;2.17;;;;;;;;;;5025224;28;20021;-51
2022/01/25 13:38:42;;;;;;;15.27;3.03;;;;;;;;;;5028903;28;20552;-45
2022/01/25 13:46:30;;;;;;;18.15;2.55;;;;;;;;;;5022957;28;20517;-45
2022/01/25 13:48:58;;;;;;;15.18;2.63;;;;;;;;;;5023778;28;20476;-42
2022/01/25 13:51:30;;;;;;;25.83;2.60;;;;;;;;;;5029056;28;20431;-43
2022/01/25 13:54:01;;;;;;;14.18;2.72;;;;;;;;;;5021452;28;20034;-43
2022/01/25 13:56:31;;;;;;;8.90;2.20;;;;;;;;;;5015842;28;20069;-45
2022/01/25 13:59:00;;;;;;;15.98;2.33;;;;;;;;;;5027091;28;20402;-44
2022/01/25 14:01:28;;;;;;;11.82;2.38;;;;;;;;;;5022349;28;20065;-43
2022/01/25 14:04:00;;;;;;;16.95;2.60;;;;;;;;;;5018391;28;20060;-44
2022/01/25 14:06:28;;;;;;;23.02;2.65;;;;;;;;;;5010376;28;20032;-45
2022/01/25 14:09:04;;;;;;;17.25;2.50;;;;;;;;;;5019506;28;20064;-46
2022/01/25 14:11:39;;;;;;;15.60;2.88;;;;;;;;;;5022469;28;20087;-44
2022/01/25 14:23:22;;;;;;;19.25;3.10;;;;;;;;;;5027099;28;20095;-48
2022/01/25 14:25:40;;;;;;;14.75;2.33;;;;;;;;;;5010021;28;20125;-49
2022/01/25 14:28:13;;;;;;;15.80;3.10;;;;;;;;;;5023232;28;20033;-47
2022/01/25 14:30:42;;;;;;;15.43;2.75;;;;;;;;;;5024483;28;20498;-45
2022/01/25 14:33:14;;;;;;;20.67;2.65;;;;;;;;;;5032272;28;20449;-49
2022/01/25 14:35:52;;;;;;;24.27;2.95;;;;;;;;;;5033082;28;20049;-40
2022/01/25 14:38:47;;;;;;;22.45;4.28;;;;;;;;;;5013269;28;20415;-40
2022/01/25 14:41:23;;;;;;;24.77;4.30;;;;;;;;;;5026484;28;20132;-40
2022/01/25 14:43:56;;;;;;;21.90;5.00;;;;;;;;;;4998989;28;20034;-43
2022/01/25 14:46:24;;;;;;;28.83;5.38;;;;;;;;;;5024945;28;20073;-42
2022/01/25 14:49:03;;;;;;;18.92;5.00;;;;;;;;;;5031519;28;20033;-43
2022/01/25 14:51:41;;;;;;;26.83;6.45;;;;;;;;;;5032544;28;20077;-42
2022/01/25 14:54:10;;;;;;;20.95;5.18;;;;;;;;;;5031972;28;20033;-43
2022/01/25 14:56:38;;;;;;;23.23;5.05;;;;;;;;;;5029013;28;20040;-42
2022/01/25 14:59:28;;;;;;;19.65;4.57;;;;;;;;;;5031200;28;20510;-43
2022/01/25 15:02:06;;;;;;;17.95;4.50;;;;;;;;;;5024066;28;20038;-43
2022/01/25 15:04:37;;;;;;;20.55;4.50;;;;;;;;;;5032360;28;20033;-43
2022/01/25 15:07:08;;;;;;;26.63;4.13;;;;;;;;;;5026139;28;20111;-43
2022/01/25 15:09:36;;;;;;;13.00;3.25;;;;;;;;;;5026879;28;20064;-40
2022/01/25 15:12:03;;;;;;;13.75;3.78;;;;;;;;;;5032395;28;20033;-40
2022/01/25 15:14:38;;;;;;;16.30;3.85;;;;;;;;;;5032400;28;20049;-40
2022/01/25 15:17:05;;;;;;;30.17;4.40;;;;;;;;;;5032074;28;20041;-41
2022/01/25 15:19:32;;;;;;;23.90;4.35;;;;;;;;;;5012021;28;20057;-41
2022/01/25 15:21:59;;;;;;;21.42;4.25;;;;;;;;;;5020904;28;20048;-41
2022/01/25 15:24:30;;;;;;;22.35;4.28;;;;;;;;;;5031160;28;20037;-41
2022/01/25 15:27:02;;;;;;;20.13;4.45;;;;;;;;;;5024472;28;20033;-41
2022/01/25 15:29:29;;;;;;;15.00;3.95;;;;;;;;;;5030865;28;20029;-41
2022/01/25 15:31:58;;;;;;;21.27;3.72;;;;;;;;;;5030098;28;20846;-41
2022/01/25 15:34:26;;;;;;;19.95;4.30;;;;;;;;;;5029467;28;20036;-41
2022/01/25 15:36:54;;;;;;;14.27;3.83;;;;;;;;;;5029729;28;20495;-40
2022/01/25 15:39:22;;;;;;;22.08;3.88;;;;;;;;;;5031012;28;20025;-41
2022/01/25 15:41:51;;;;;;;22.33;3.80;;;;;;;;;;5027982;28;20486;-41
2022/01/25 15:44:20;;;;;;;17.17;3.50;;;;;;;;;;5028427;28;20499;-41
2022/01/25 15:49:14;;;;;;;16.92;3.28;;;;;;;;;;5029918;28;20046;-41
2022/01/25 15:51:41;;;;;;;13.95;3.38;;;;;;;;;;5031191;28;20406;-41
2022/01/25 15:54:09;;;;;;;18.10;4.00;;;;;;;;;;5030319;28;20071;-41
2022/01/25 15:56:36;;;;;;;14.20;3.40;;;;;;;;;;5029851;28;20116;-41
2022/01/25 15:59:03;;;;;;;12.40;3.20;;;;;;;;;;5030870;28;20034;-41
2022/01/25 16:01:30;;;;;;;14.13;3.25;;;;;;;;;;5030148;28;20398;-41
2022/01/25 16:03:57;;;;;;;17.77;3.35;;;;;;;;;;5030626;28;20368;-41
2022/01/25 16:06:24;;;;;;;18.80;3.53;;;;;;;;;;5030459;28;20029;-41
2022/01/25 16:08:53;;;;;;;13.43;3.10;;;;;;;;;;5027800;28;20044;-41
2022/01/25 16:11:23;;;;;;;16.92;4.05;;;;;;;;;;5031216;28;20053;-41
2022/01/25 16:13:50;;;;;;;16.17;3.20;;;;;;;;;;5025549;28;20037;-41
2022/01/25 16:16:19;;;;;;;15.13;3.30;;;;;;;;;;5012329;28;20030;-41
2022/01/25 16:18:48;;;;;;;20.75;3.53;;;;;;;;;;5030924;28;20038;-41
2022/01/25 16:21:15;;;;;;;15.30;3.40;;;;;;;;;;5028670;28;20022;-41
2022/01/25 16:23:42;;;;;;;11.68;3.22;;;;;;;;;;5027921;28;20029;-41
2022/01/25 16:26:17;;;;;;;11.68;3.28;;;;;;;;;;4997335;28;20061;-41
2022/01/25 16:28:45;;;;;;;20.13;3.30;;;;;;;;;;5028146;28;20119;-41
2022/01/25 16:31:28;;;;;;;14.05;3.55;;;;;;;;;;5010847;28;20064;-41
2022/01/25 16:33:55;;;;;;;16.92;3.00;;;;;;;;;;5024642;28;20035;-41
2022/01/25 16:36:22;;;;;;;14.50;3.10;;;;;;;;;;5005931;28;20109;-41
2022/01/25 16:38:50;;;;;;;21.50;2.80;;;;;;;;;;5015855;28;20068;-41
2022/01/25 16:41:17;;;;;;;17.70;3.13;;;;;;;;;;5013335;28;20116;-41
2022/01/25 16:43:45;;;;;;;14.50;3.28;;;;;;;;;;5016175;28;20625;-41
2022/01/25 16:46:14;;;;;;;14.77;3.20;;;;;;;;;;5005764;28;20052;-41
2022/01/25 16:48:42;;;;;;;22.35;6.25;;;;;;;;;;5020038;28;20033;-41
2022/01/25 16:51:09;;;;;;;15.82;5.75;;;;;;;;;;5013134;28;20033;-41
2022/01/25 16:53:36;;;;;;;17.00;5.80;;;;;;;;;;5022498;28;20032;-41
2022/01/25 16:56:03;;;;;;;25.67;6.35;;;;;;;;;;5030393;28;20037;-41
2022/01/25 16:58:31;;;;;;;16.15;6.22;;;;;;;;;;5030364;28;20670;-42
2022/01/25 17:00:58;;;;;;;21.10;5.43;;;;;;;;;;5028693;28;20095;-41
2022/01/25 17:03:29;;;;;;;15.70;5.53;;;;;;;;;;5027114;28;20057;-41
2022/01/25 17:05:56;;;;;;;16.83;4.70;;;;;;;;;;5026359;28;20719;-41